sensor_id;sensor_type;location;lat;lon;timestamp;P1;durP1;ratioP1;P2;durP2;ratioP2
24325;SDS011;12448;45.532;5.290;2023-01-09T00:02:04;0.40;;;0.40;;
24325;SDS011;12448;45.532;5.290;2023-01-09T00:04:29;0.50;;;0.47;;
24325;SDS011;12448;45.532;5.290;2023-01-09T00:06:55;0.77;;;0.70;;
24325;SDS011;12448;45.532;5.290;2023-01-09T00:09:22;2.35;;;0.80;;
24325;SDS011;12448;45.532;5.290;2023-01-09T00:11:48;1.92;;;0.70;;
24325;SDS011;12448;45.532;5.290;2023-01-09T00:14:15;0.60;;;0.52;;
24325;SDS011;12448;45.532;5.290;2023-01-09T00:16:41;1.40;;;0.70;;
24325;SDS011;12448;45.532;5.290;2023-01-09T00:19:07;2.90;;;1.05;;
24325;SDS011;12448;45.532;5.290;2023-01-09T00:21:34;0.90;;;0.70;;
24325;SDS011;12448;45.532;5.290;2023-01-09T00:23:59;2.15;;;0.70;;
24325;SDS011;12448;45.532;5.290;2023-01-09T00:26:25;2.97;;;0.80;;
24325;SDS011;12448;45.532;5.290;2023-01-09T00:28:51;1.30;;;0.70;;
24325;SDS011;12448;45.532;5.290;2023-01-09T00:31:18;0.70;;;0.65;;
24325;SDS011;12448;45.532;5.290;2023-01-09T00:34:03;0.75;;;0.60;;
24325;SDS011;12448;45.532;5.290;2023-01-09T00:36:31;2.08;;;0.63;;
24325;SDS011;12448;45.532;5.290;2023-01-09T00:38:57;2.92;;;0.90;;
24325;SDS011;12448;45.532;5.290;2023-01-09T00:41:24;0.60;;;0.55;;
24325;SDS011;12448;45.532;5.290;2023-01-09T00:43:55;0.85;;;0.50;;
24325;SDS011;12448;45.532;5.290;2023-01-09T00:46:28;2.42;;;0.60;;
24325;SDS011;12448;45.532;5.290;2023-01-09T00:51:26;1.98;;;0.60;;
24325;SDS011;12448;45.532;5.290;2023-01-09T00:53:52;2.30;;;0.80;;
24325;SDS011;12448;45.532;5.290;2023-01-09T00:56:18;0.55;;;0.55;;
24325;SDS011;12448;45.532;5.290;2023-01-09T00:58:45;0.98;;;0.60;;
24325;SDS011;12448;45.532;5.290;2023-01-09T01:01:12;3.10;;;1.10;;
24325;SDS011;12448;45.532;5.290;2023-01-09T01:03:37;2.15;;;0.70;;
24325;SDS011;12448;45.532;5.290;2023-01-09T01:06:03;1.15;;;0.60;;
24325;SDS011;12448;45.532;5.290;2023-01-09T01:08:47;0.95;;;0.50;;
24325;SDS011;12448;45.532;5.290;2023-01-09T01:11:13;1.88;;;0.60;;
24325;SDS011;12448;45.532;5.290;2023-01-09T01:13:39;1.52;;;0.93;;
24325;SDS011;12448;45.532;5.290;2023-01-09T01:16:06;1.73;;;0.60;;
24325;SDS011;12448;45.532;5.290;2023-01-09T01:18:34;2.47;;;0.70;;
24325;SDS011;12448;45.532;5.290;2023-01-09T01:21:00;0.75;;;0.60;;
24325;SDS011;12448;45.532;5.290;2023-01-09T01:23:29;1.13;;;0.60;;
24325;SDS011;12448;45.532;5.290;2023-01-09T01:25:54;3.08;;;0.60;;
24325;SDS011;12448;45.532;5.290;2023-01-09T01:28:20;1.38;;;0.40;;
24325;SDS011;12448;45.532;5.290;2023-01-09T01:30:46;0.60;;;0.60;;
24325;SDS011;12448;45.532;5.290;2023-01-09T01:33:11;0.73;;;0.60;;
24325;SDS011;12448;45.532;5.290;2023-01-09T01:35:37;2.80;;;0.90;;
24325;SDS011;12448;45.532;5.290;2023-01-09T01:38:02;2.05;;;0.70;;
24325;SDS011;12448;45.532;5.290;2023-01-09T01:40:29;0.60;;;0.57;;
24325;SDS011;12448;45.532;5.290;2023-01-09T01:42:55;1.45;;;0.70;;
24325;SDS011;12448;45.532;5.290;2023-01-09T01:45:21;3.13;;;0.82;;
24325;SDS011;12448;45.532;5.290;2023-01-09T01:47:51;1.27;;;0.75;;
24325;SDS011;12448;45.532;5.290;2023-01-09T01:50:29;0.68;;;0.60;;
24325;SDS011;12448;45.532;5.290;2023-01-09T01:53:06;2.47;;;0.60;;
24325;SDS011;12448;45.532;5.290;2023-01-09T01:55:41;2.92;;;0.70;;
24325;SDS011;12448;45.532;5.290;2023-01-09T01:58:12;1.98;;;1.00;;
24325;SDS011;12448;45.532;5.290;2023-01-09T02:00:41;1.35;;;0.70;;
24325;SDS011;12448;45.532;5.290;2023-01-09T02:03:08;0.55;;;0.55;;
24325;SDS011;12448;45.532;5.290;2023-01-09T02:05:36;0.68;;;0.50;;
24325;SDS011;12448;45.532;5.290;2023-01-09T02:08:03;1.55;;;0.50;;
24325;SDS011;12448;45.532;5.290;2023-01-09T02:10:30;1.48;;;0.45;;
24325;SDS011;12448;45.532;5.290;2023-01-09T02:12:57;1.60;;;0.75;;
24325;SDS011;12448;45.532;5.290;2023-01-09T02:15:23;0.50;;;0.50;;
24325;SDS011;12448;45.532;5.290;2023-01-09T02:31:47;0.82;;;0.52;;
24325;SDS011;12448;45.532;5.290;2023-01-09T02:43:20;3.03;;;1.00;;
24325;SDS011;12448;45.532;5.290;2023-01-09T02:45:46;4.20;;;0.70;;
24325;SDS011;12448;45.532;5.290;2023-01-09T02:48:11;3.97;;;0.90;;
24325;SDS011;12448;45.532;5.290;2023-01-09T02:56:04;1.83;;;0.65;;
24325;SDS011;12448;45.532;5.290;2023-01-09T03:09:26;0.60;;;0.50;;
24325;SDS011;12448;45.532;5.290;2023-01-09T03:11:58;0.52;;;0.50;;
24325;SDS011;12448;45.532;5.290;2023-01-09T03:14:29;1.17;;;0.57;;
24325;SDS011;12448;45.532;5.290;2023-01-09T03:16:57;5.60;;;1.42;;
24325;SDS011;12448;45.532;5.290;2023-01-09T03:19:29;3.60;;;1.88;;
24325;SDS011;12448;45.532;5.290;2023-01-09T03:21:56;5.03;;;1.58;;
24325;SDS011;12448;45.532;5.290;2023-01-09T03:24:22;4.13;;;1.52;;
24325;SDS011;12448;45.532;5.290;2023-01-09T03:26:48;2.17;;;0.73;;
24325;SDS011;12448;45.532;5.290;2023-01-09T03:29:14;1.23;;;0.70;;
24325;SDS011;12448;45.532;5.290;2023-01-09T03:31:40;0.90;;;0.60;;
24325;SDS011;12448;45.532;5.290;2023-01-09T03:34:06;2.30;;;0.80;;
24325;SDS011;12448;45.532;5.290;2023-01-09T03:36:31;3.30;;;0.80;;
24325;SDS011;12448;45.532;5.290;2023-01-09T03:38:57;1.60;;;1.02;;
24325;SDS011;12448;45.532;5.290;2023-01-09T03:41:22;1.25;;;0.95;;
24325;SDS011;12448;45.532;5.290;2023-01-09T03:43:48;6.70;;;2.55;;
24325;SDS011;12448;45.532;5.290;2023-01-09T03:46:14;7.88;;;3.17;;
24325;SDS011;12448;45.532;5.290;2023-01-09T03:48:40;4.72;;;2.03;;
24325;SDS011;12448;45.532;5.290;2023-01-09T03:51:06;5.88;;;3.00;;
24325;SDS011;12448;45.532;5.290;2023-01-09T03:53:32;3.55;;;1.90;;
24325;SDS011;12448;45.532;5.290;2023-01-09T03:55:58;1.77;;;1.23;;
24325;SDS011;12448;45.532;5.290;2023-01-09T03:58:23;3.90;;;1.30;;
24325;SDS011;12448;45.532;5.290;2023-01-09T04:00:50;4.25;;;2.30;;
24325;SDS011;12448;45.532;5.290;2023-01-09T04:03:17;3.38;;;2.00;;
24325;SDS011;12448;45.532;5.290;2023-01-09T04:05:44;2.97;;;1.67;;
24325;SDS011;12448;45.532;5.290;2023-01-09T04:08:12;1.30;;;1.00;;
24325;SDS011;12448;45.532;5.290;2023-01-09T04:10:38;2.53;;;0.90;;
24325;SDS011;12448;45.532;5.290;2023-01-09T04:13:04;1.10;;;0.80;;
24325;SDS011;12448;45.532;5.290;2023-01-09T04:15:29;3.15;;;1.48;;
24325;SDS011;12448;45.532;5.290;2023-01-09T04:17:55;1.85;;;0.60;;
24325;SDS011;12448;45.532;5.290;2023-01-09T04:20:21;1.60;;;0.50;;
24325;SDS011;12448;45.532;5.290;2023-01-09T04:22:47;1.70;;;0.60;;
24325;SDS011;12448;45.532;5.290;2023-01-09T04:25:15;1.42;;;0.70;;
24325;SDS011;12448;45.532;5.290;2023-01-09T04:27:42;1.17;;;0.50;;
24325;SDS011;12448;45.532;5.290;2023-01-09T04:30:10;4.95;;;0.80;;
24325;SDS011;12448;45.532;5.290;2023-01-09T04:32:52;1.92;;;0.52;;
24325;SDS011;12448;45.532;5.290;2023-01-09T04:35:21;5.20;;;0.85;;
24325;SDS011;12448;45.532;5.290;2023-01-09T04:37:47;1.15;;;0.63;;
24325;SDS011;12448;45.532;5.290;2023-01-09T04:40:13;5.30;;;0.70;;
24325;SDS011;12448;45.532;5.290;2023-01-09T04:42:39;3.17;;;1.50;;
24325;SDS011;12448;45.532;5.290;2023-01-09T04:45:06;3.35;;;1.00;;
24325;SDS011;12448;45.532;5.290;2023-01-09T04:47:34;3.80;;;0.70;;
24325;SDS011;12448;45.532;5.290;2023-01-09T04:50:00;3.60;;;0.70;;
24325;SDS011;12448;45.532;5.290;2023-01-09T04:52:26;2.30;;;0.60;;
24325;SDS011;12448;45.532;5.290;2023-01-09T05:05:04;0.70;;;0.43;;
24325;SDS011;12448;45.532;5.290;2023-01-09T05:14:25;3.13;;;0.80;;
24325;SDS011;12448;45.532;5.290;2023-01-09T05:16:58;2.50;;;0.82;;
24325;SDS011;12448;45.532;5.290;2023-01-09T05:19:29;6.45;;;1.58;;
24325;SDS011;12448;45.532;5.290;2023-01-09T05:21:58;2.53;;;0.85;;
24325;SDS011;12448;45.532;5.290;2023-01-09T05:24:33;5.78;;;1.27;;
24325;SDS011;12448;45.532;5.290;2023-01-09T05:27:19;4.60;;;1.13;;
24325;SDS011;12448;45.532;5.290;2023-01-09T05:30:17;4.22;;;2.45;;
24325;SDS011;12448;45.532;5.290;2023-01-09T05:32:44;5.28;;;2.33;;
24325;SDS011;12448;45.532;5.290;2023-01-09T05:35:12;7.57;;;2.75;;
24325;SDS011;12448;45.532;5.290;2023-01-09T05:37:41;12.00;;;6.30;;
24325;SDS011;12448;45.532;5.290;2023-01-09T05:40:08;10.48;;;4.93;;
24325;SDS011;12448;45.532;5.290;2023-01-09T05:42:34;5.75;;;2.72;;
24325;SDS011;12448;45.532;5.290;2023-01-09T05:45:00;9.95;;;3.95;;
24325;SDS011;12448;45.532;5.290;2023-01-09T05:47:25;6.70;;;2.35;;
24325;SDS011;12448;45.532;5.290;2023-01-09T05:49:57;5.47;;;2.00;;
24325;SDS011;12448;45.532;5.290;2023-01-09T05:52:26;3.53;;;1.20;;
24325;SDS011;12448;45.532;5.290;2023-01-09T05:54:51;3.22;;;0.90;;
24325;SDS011;12448;45.532;5.290;2023-01-09T05:57:20;2.00;;;1.00;;
24325;SDS011;12448;45.532;5.290;2023-01-09T05:59:48;2.00;;;0.95;;
24325;SDS011;12448;45.532;5.290;2023-01-09T06:02:14;3.58;;;1.17;;
24325;SDS011;12448;45.532;5.290;2023-01-09T06:04:45;4.70;;;1.40;;
24325;SDS011;12448;45.532;5.290;2023-01-09T06:07:11;13.05;;;3.00;;
24325;SDS011;12448;45.532;5.290;2023-01-09T06:09:36;3.97;;;1.98;;
24325;SDS011;12448;45.532;5.290;2023-01-09T06:12:02;8.95;;;2.33;;
24325;SDS011;12448;45.532;5.290;2023-01-09T06:14:28;6.50;;;2.45;;
24325;SDS011;12448;45.532;5.290;2023-01-09T06:16:54;6.60;;;2.50;;
24325;SDS011;12448;45.532;5.290;2023-01-09T06:19:20;7.65;;;2.92;;
24325;SDS011;12448;45.532;5.290;2023-01-09T06:21:45;6.63;;;2.50;;
24325;SDS011;12448;45.532;5.290;2023-01-09T06:24:11;5.65;;;2.08;;
24325;SDS011;12448;45.532;5.290;2023-01-09T06:26:37;10.43;;;4.90;;
24325;SDS011;12448;45.532;5.290;2023-01-09T06:29:02;7.20;;;3.30;;
24325;SDS011;12448;45.532;5.290;2023-01-09T06:31:28;4.03;;;1.48;;
24325;SDS011;12448;45.532;5.290;2023-01-09T06:33:54;5.55;;;1.35;;
24325;SDS011;12448;45.532;5.290;2023-01-09T06:36:22;2.90;;;1.30;;
24325;SDS011;12448;45.532;5.290;2023-01-09T06:38:47;3.75;;;1.17;;
24325;SDS011;12448;45.532;5.290;2023-01-09T06:41:13;1.92;;;0.80;;
24325;SDS011;12448;45.532;5.290;2023-01-09T06:43:39;4.65;;;1.20;;
24325;SDS011;12448;45.532;5.290;2023-01-09T06:46:04;12.35;;;7.30;;
24325;SDS011;12448;45.532;5.290;2023-01-09T06:48:31;20.70;;;14.38;;
24325;SDS011;12448;45.532;5.290;2023-01-09T06:50:57;23.38;;;14.40;;
24325;SDS011;12448;45.532;5.290;2023-01-09T06:53:22;19.80;;;11.77;;
24325;SDS011;12448;45.532;5.290;2023-01-09T06:55:48;14.18;;;8.35;;
24325;SDS011;12448;45.532;5.290;2023-01-09T06:58:14;8.60;;;5.00;;
24325;SDS011;12448;45.532;5.290;2023-01-09T07:00:40;8.85;;;4.68;;
24325;SDS011;12448;45.532;5.290;2023-01-09T07:03:06;11.25;;;4.18;;
24325;SDS011;12448;45.532;5.290;2023-01-09T07:05:32;8.02;;;3.72;;
24325;SDS011;12448;45.532;5.290;2023-01-09T07:08:05;9.68;;;3.40;;
24325;SDS011;12448;45.532;5.290;2023-01-09T07:10:30;8.43;;;4.95;;
24325;SDS011;12448;45.532;5.290;2023-01-09T07:12:56;13.27;;;5.85;;
24325;SDS011;12448;45.532;5.290;2023-01-09T07:15:22;10.23;;;4.10;;
24325;SDS011;12448;45.532;5.290;2023-01-09T07:17:55;9.20;;;4.45;;
24325;SDS011;12448;45.532;5.290;2023-01-09T07:20:21;14.95;;;5.05;;
24325;SDS011;12448;45.532;5.290;2023-01-09T07:22:49;13.82;;;6.50;;
24325;SDS011;12448;45.532;5.290;2023-01-09T07:25:15;21.80;;;10.73;;
24325;SDS011;12448;45.532;5.290;2023-01-09T07:27:41;21.75;;;9.20;;
24325;SDS011;12448;45.532;5.290;2023-01-09T07:30:18;15.75;;;4.95;;
24325;SDS011;12448;45.532;5.290;2023-01-09T07:32:50;4.15;;;1.35;;
24325;SDS011;12448;45.532;5.290;2023-01-09T07:35:20;3.40;;;1.27;;
24325;SDS011;12448;45.532;5.290;2023-01-09T07:37:49;5.35;;;1.75;;
24325;SDS011;12448;45.532;5.290;2023-01-09T07:40:15;3.80;;;1.40;;
24325;SDS011;12448;45.532;5.290;2023-01-09T07:42:41;7.20;;;1.85;;
24325;SDS011;12448;45.532;5.290;2023-01-09T07:45:09;5.80;;;1.75;;
24325;SDS011;12448;45.532;5.290;2023-01-09T07:47:35;7.10;;;1.98;;
24325;SDS011;12448;45.532;5.290;2023-01-09T07:50:01;8.70;;;2.20;;
24325;SDS011;12448;45.532;5.290;2023-01-09T07:52:26;9.40;;;1.95;;
24325;SDS011;12448;45.532;5.290;2023-01-09T07:54:52;10.60;;;2.40;;
24325;SDS011;12448;45.532;5.290;2023-01-09T07:57:18;6.30;;;2.28;;
24325;SDS011;12448;45.532;5.290;2023-01-09T07:59:43;9.02;;;2.25;;
24325;SDS011;12448;45.532;5.290;2023-01-09T08:02:09;4.88;;;2.17;;
24325;SDS011;12448;45.532;5.290;2023-01-09T08:04:36;10.25;;;2.60;;
24325;SDS011;12448;45.532;5.290;2023-01-09T08:07:01;11.95;;;2.75;;
24325;SDS011;12448;45.532;5.290;2023-01-09T08:09:27;8.00;;;1.92;;
24325;SDS011;12448;45.532;5.290;2023-01-09T08:11:53;7.47;;;1.75;;
24325;SDS011;12448;45.532;5.290;2023-01-09T08:14:21;10.52;;;2.00;;
24325;SDS011;12448;45.532;5.290;2023-01-09T08:16:47;12.60;;;2.78;;
24325;SDS011;12448;45.532;5.290;2023-01-09T08:19:12;13.32;;;2.20;;
24325;SDS011;12448;45.532;5.290;2023-01-09T08:21:38;10.07;;;2.63;;
24325;SDS011;12448;45.532;5.290;2023-01-09T08:24:04;10.57;;;3.30;;
24325;SDS011;12448;45.532;5.290;2023-01-09T08:26:30;9.38;;;2.90;;
24325;SDS011;12448;45.532;5.290;2023-01-09T08:28:55;9.27;;;2.10;;
24325;SDS011;12448;45.532;5.290;2023-01-09T08:31:21;7.32;;;2.00;;
24325;SDS011;12448;45.532;5.290;2023-01-09T08:33:46;11.35;;;2.40;;
24325;SDS011;12448;45.532;5.290;2023-01-09T08:36:12;8.70;;;2.00;;
24325;SDS011;12448;45.532;5.290;2023-01-09T08:38:38;9.02;;;1.98;;
24325;SDS011;12448;45.532;5.290;2023-01-09T08:41:03;10.32;;;1.98;;
24325;SDS011;12448;45.532;5.290;2023-01-09T08:43:49;9.40;;;1.60;;
24325;SDS011;12448;45.532;5.290;2023-01-09T08:46:33;3.38;;;1.30;;
24325;SDS011;12448;45.532;5.290;2023-01-09T08:49:17;11.60;;;1.80;;
24325;SDS011;12448;45.532;5.290;2023-01-09T08:51:43;7.50;;;1.55;;
24325;SDS011;12448;45.532;5.290;2023-01-09T08:54:08;7.93;;;1.38;;
24325;SDS011;12448;45.532;5.290;2023-01-09T08:56:34;6.35;;;1.45;;
24325;SDS011;12448;45.532;5.290;2023-01-09T08:58:59;7.10;;;1.70;;
24325;SDS011;12448;45.532;5.290;2023-01-09T09:01:25;5.80;;;1.63;;
24325;SDS011;12448;45.532;5.290;2023-01-09T09:03:51;6.82;;;1.52;;
24325;SDS011;12448;45.532;5.290;2023-01-09T09:06:16;5.25;;;1.23;;
24325;SDS011;12448;45.532;5.290;2023-01-09T09:08:42;11.40;;;2.03;;
24325;SDS011;12448;45.532;5.290;2023-01-09T09:11:07;13.43;;;2.60;;
24325;SDS011;12448;45.532;5.290;2023-01-09T09:13:33;7.13;;;1.38;;
24325;SDS011;12448;45.532;5.290;2023-01-09T09:15:58;7.28;;;1.48;;
24325;SDS011;12448;45.532;5.290;2023-01-09T09:18:24;8.20;;;1.88;;
24325;SDS011;12448;45.532;5.290;2023-01-09T09:20:50;5.88;;;1.20;;
24325;SDS011;12448;45.532;5.290;2023-01-09T09:23:15;5.50;;;1.45;;
24325;SDS011;12448;45.532;5.290;2023-01-09T09:25:41;4.13;;;1.25;;
24325;SDS011;12448;45.532;5.290;2023-01-09T09:28:08;7.95;;;1.70;;
24325;SDS011;12448;45.532;5.290;2023-01-09T09:30:34;7.03;;;1.17;;
24325;SDS011;12448;45.532;5.290;2023-01-09T09:33:02;7.22;;;1.20;;
24325;SDS011;12448;45.532;5.290;2023-01-09T09:35:28;3.80;;;0.90;;
24325;SDS011;12448;45.532;5.290;2023-01-09T09:37:56;2.05;;;1.10;;
24325;SDS011;12448;45.532;5.290;2023-01-09T09:40:33;5.90;;;1.00;;
24325;SDS011;12448;45.532;5.290;2023-01-09T09:43:28;9.73;;;1.10;;
24325;SDS011;12448;45.532;5.290;2023-01-09T09:48:56;9.13;;;1.27;;
24325;SDS011;12448;45.532;5.290;2023-01-09T09:51:43;4.35;;;1.38;;
24325;SDS011;12448;45.532;5.290;2023-01-09T09:54:19;7.28;;;1.10;;
24325;SDS011;12448;45.532;5.290;2023-01-09T09:56:52;6.80;;;1.10;;
24325;SDS011;12448;45.532;5.290;2023-01-09T09:59:21;5.57;;;1.30;;
24325;SDS011;12448;45.532;5.290;2023-01-09T10:01:58;5.43;;;1.30;;
24325;SDS011;12448;45.532;5.290;2023-01-09T10:04:30;9.27;;;1.20;;
24325;SDS011;12448;45.532;5.290;2023-01-09T10:06:59;3.60;;;1.00;;
24325;SDS011;12448;45.532;5.290;2023-01-09T10:12:12;13.32;;;1.73;;
24325;SDS011;12448;45.532;5.290;2023-01-09T10:14:45;4.60;;;1.33;;
24325;SDS011;12448;45.532;5.290;2023-01-09T10:17:15;5.50;;;1.10;;
24325;SDS011;12448;45.532;5.290;2023-01-09T10:31:03;4.50;;;0.98;;
24325;SDS011;12448;45.532;5.290;2023-01-09T10:33:58;5.50;;;1.42;;
24325;SDS011;12448;45.532;5.290;2023-01-09T10:36:44;9.13;;;1.20;;
24325;SDS011;12448;45.532;5.290;2023-01-09T10:39:25;7.30;;;1.15;;
24325;SDS011;12448;45.532;5.290;2023-01-09T10:41:54;3.60;;;1.10;;
24325;SDS011;12448;45.532;5.290;2023-01-09T10:44:33;4.35;;;1.10;;
24325;SDS011;12448;45.532;5.290;2023-01-09T10:47:03;3.28;;;1.10;;
24325;SDS011;12448;45.532;5.290;2023-01-09T10:49:35;5.30;;;1.02;;
24325;SDS011;12448;45.532;5.290;2023-01-09T10:52:49;5.43;;;0.93;;
24325;SDS011;12448;45.532;5.290;2023-01-09T10:57:56;5.25;;;1.20;;
24325;SDS011;12448;45.532;5.290;2023-01-09T11:00:25;6.43;;;1.20;;
24325;SDS011;12448;45.532;5.290;2023-01-09T11:02:51;7.05;;;1.20;;
24325;SDS011;12448;45.532;5.290;2023-01-09T11:05:23;6.05;;;1.30;;
24325;SDS011;12448;45.532;5.290;2023-01-09T11:08:00;6.78;;;1.50;;
24325;SDS011;12448;45.532;5.290;2023-01-09T11:13:19;9.18;;;1.88;;
24325;SDS011;12448;45.532;5.290;2023-01-09T11:16:04;6.18;;;1.30;;
24325;SDS011;12448;45.532;5.290;2023-01-09T11:18:30;5.55;;;1.25;;
24325;SDS011;12448;45.532;5.290;2023-01-09T11:21:13;6.38;;;1.20;;
24325;SDS011;12448;45.532;5.290;2023-01-09T11:24:20;4.72;;;1.20;;
24325;SDS011;12448;45.532;5.290;2023-01-09T11:27:37;4.90;;;1.00;;
24325;SDS011;12448;45.532;5.290;2023-01-09T11:29:38;3.78;;;1.35;;
24325;SDS011;12448;45.532;5.290;2023-01-09T11:32:19;2.38;;;1.05;;
24325;SDS011;12448;45.532;5.290;2023-01-09T11:34:47;7.38;;;1.13;;
24325;SDS011;12448;45.532;5.290;2023-01-09T11:37:22;4.97;;;1.67;;
24325;SDS011;12448;45.532;5.290;2023-01-09T11:39:52;7.93;;;1.55;;
24325;SDS011;12448;45.532;5.290;2023-01-09T11:42:21;5.95;;;1.38;;
24325;SDS011;12448;45.532;5.290;2023-01-09T11:45:21;5.80;;;1.77;;
24325;SDS011;12448;45.532;5.290;2023-01-09T11:47:52;7.70;;;1.15;;
24325;SDS011;12448;45.532;5.290;2023-01-09T11:50:19;7.47;;;1.38;;
24325;SDS011;12448;45.532;5.290;2023-01-09T11:55:37;6.53;;;1.58;;
24325;SDS011;12448;45.532;5.290;2023-01-09T11:58:03;5.80;;;2.15;;
24325;SDS011;12448;45.532;5.290;2023-01-09T12:00:29;6.88;;;1.40;;
24325;SDS011;12448;45.532;5.290;2023-01-09T12:05:41;7.80;;;1.40;;
24325;SDS011;12448;45.532;5.290;2023-01-09T12:08:31;4.65;;;1.52;;
24325;SDS011;12448;45.532;5.290;2023-01-09T12:11:21;6.03;;;1.67;;
24325;SDS011;12448;45.532;5.290;2023-01-09T12:20:22;6.05;;;1.67;;
24325;SDS011;12448;45.532;5.290;2023-01-09T12:28:30;6.47;;;1.30;;
24325;SDS011;12448;45.532;5.290;2023-01-09T12:36:07;7.00;;;1.35;;
24325;SDS011;12448;45.532;5.290;2023-01-09T12:39:05;8.27;;;1.92;;
24325;SDS011;12448;45.532;5.290;2023-01-09T12:41:59;3.90;;;1.33;;
24325;SDS011;12448;45.532;5.290;2023-01-09T12:44:51;9.02;;;1.58;;
24325;SDS011;12448;45.532;5.290;2023-01-09T12:56:06;6.82;;;1.45;;
24325;SDS011;12448;45.532;5.290;2023-01-09T12:58:47;4.90;;;1.27;;
24325;SDS011;12448;45.532;5.290;2023-01-09T13:01:31;11.00;;;4.88;;
24325;SDS011;12448;45.532;5.290;2023-01-09T13:04:21;8.10;;;1.60;;
24325;SDS011;12448;45.532;5.290;2023-01-09T13:06:56;6.53;;;1.20;;
24325;SDS011;12448;45.532;5.290;2023-01-09T13:09:32;11.55;;;6.63;;
24325;SDS011;12448;45.532;5.290;2023-01-09T13:12:16;8.18;;;1.33;;
24325;SDS011;12448;45.532;5.290;2023-01-09T13:15:00;5.22;;;1.70;;
24325;SDS011;12448;45.532;5.290;2023-01-09T13:17:39;0.65;;;0.43;;
24325;SDS011;12448;45.532;5.290;2023-01-09T14:21:55;4.28;;;1.90;;
24325;SDS011;12448;45.532;5.290;2023-01-09T14:26:57;4.07;;;1.65;;
24325;SDS011;12448;45.532;5.290;2023-01-09T14:32:12;8.13;;;2.30;;
24325;SDS011;12448;45.532;5.290;2023-01-09T14:37:21;3.55;;;1.08;;
24325;SDS011;12448;45.532;5.290;2023-01-09T14:39:48;4.38;;;1.83;;
24325;SDS011;12448;45.532;5.290;2023-01-09T14:42:17;4.80;;;1.88;;
24325;SDS011;12448;45.532;5.290;2023-01-09T14:44:48;3.88;;;1.00;;
24325;SDS011;12448;45.532;5.290;2023-01-09T14:47:31;3.47;;;1.08;;
24325;SDS011;12448;45.532;5.290;2023-01-09T14:52:49;2.47;;;0.75;;
24325;SDS011;12448;45.532;5.290;2023-01-09T14:58:25;6.03;;;1.00;;
24325;SDS011;12448;45.532;5.290;2023-01-09T15:01:02;3.45;;;1.23;;
24325;SDS011;12448;45.532;5.290;2023-01-09T15:06:19;2.30;;;0.88;;
24325;SDS011;12448;45.532;5.290;2023-01-09T15:09:00;3.40;;;1.17;;
24325;SDS011;12448;45.532;5.290;2023-01-09T15:11:28;7.63;;;1.77;;
24325;SDS011;12448;45.532;5.290;2023-01-09T15:13:56;4.65;;;1.23;;
24325;SDS011;12448;45.532;5.290;2023-01-09T15:16:24;7.45;;;1.20;;
24325;SDS011;12448;45.532;5.290;2023-01-09T15:34:42;5.90;;;1.90;;
24325;SDS011;12448;45.532;5.290;2023-01-09T15:37:36;6.50;;;1.70;;
24325;SDS011;12448;45.532;5.290;2023-01-09T15:40:06;4.97;;;1.60;;
24325;SDS011;12448;45.532;5.290;2023-01-09T15:42:48;7.18;;;1.40;;
24325;SDS011;12448;45.532;5.290;2023-01-09T15:45:28;6.70;;;1.60;;
24325;SDS011;12448;45.532;5.290;2023-01-09T16:01:32;5.57;;;1.67;;
24325;SDS011;12448;45.532;5.290;2023-01-09T16:04:47;3.75;;;1.50;;
24325;SDS011;12448;45.532;5.290;2023-01-09T16:07:15;4.35;;;1.33;;
24325;SDS011;12448;45.532;5.290;2023-01-09T16:10:00;7.63;;;1.90;;
24325;SDS011;12448;45.532;5.290;2023-01-09T16:12:36;11.00;;;1.90;;
24325;SDS011;12448;45.532;5.290;2023-01-09T16:15:33;7.25;;;1.65;;
24325;SDS011;12448;45.532;5.290;2023-01-09T16:18:06;6.10;;;1.48;;
24325;SDS011;12448;45.532;5.290;2023-01-09T16:20:49;5.22;;;1.48;;
24325;SDS011;12448;45.532;5.290;2023-01-09T16:23:49;7.28;;;1.77;;
24325;SDS011;12448;45.532;5.290;2023-01-09T16:26:46;6.63;;;2.13;;
24325;SDS011;12448;45.532;5.290;2023-01-09T16:29:35;4.60;;;1.63;;
24325;SDS011;12448;45.532;5.290;2023-01-09T16:32:12;7.35;;;1.77;;
24325;SDS011;12448;45.532;5.290;2023-01-09T16:35:38;5.07;;;1.75;;
24325;SDS011;12448;45.532;5.290;2023-01-09T16:41:58;8.50;;;1.88;;
24325;SDS011;12448;45.532;5.290;2023-01-09T16:48:09;5.25;;;1.38;;
24325;SDS011;12448;45.532;5.290;2023-01-09T16:51:00;6.32;;;1.77;;
24325;SDS011;12448;45.532;5.290;2023-01-09T16:53:42;5.25;;;1.73;;
24325;SDS011;12448;45.532;5.290;2023-01-09T16:56:22;4.63;;;1.60;;
24325;SDS011;12448;45.532;5.290;2023-01-09T16:59:09;8.82;;;2.00;;
24325;SDS011;12448;45.532;5.290;2023-01-09T17:01:47;2.97;;;1.45;;
24325;SDS011;12448;45.532;5.290;2023-01-09T17:18:37;30.33;;;19.02;;
24325;SDS011;12448;45.532;5.290;2023-01-09T17:24:21;18.83;;;11.70;;
24325;SDS011;12448;45.532;5.290;2023-01-09T17:27:11;46.22;;;23.65;;
24325;SDS011;12448;45.532;5.290;2023-01-09T17:29:58;27.20;;;10.75;;
24325;SDS011;12448;45.532;5.290;2023-01-09T17:43:24;37.70;;;11.63;;
24325;SDS011;12448;45.532;5.290;2023-01-09T17:45:53;38.55;;;14.57;;
24325;SDS011;12448;45.532;5.290;2023-01-09T17:48:34;17.40;;;6.13;;
24325;SDS011;12448;45.532;5.290;2023-01-09T17:55:10;11.52;;;3.83;;
24325;SDS011;12448;45.532;5.290;2023-01-09T17:57:39;26.83;;;8.25;;
24325;SDS011;12448;45.532;5.290;2023-01-09T18:13:31;14.65;;;7.95;;
24325;SDS011;12448;45.532;5.290;2023-01-09T18:15:58;17.55;;;8.00;;
24325;SDS011;12448;45.532;5.290;2023-01-09T20:27:33;11.88;;;3.50;;
24325;SDS011;12448;45.532;5.290;2023-01-09T20:29:58;14.48;;;5.47;;
24325;SDS011;12448;45.532;5.290;2023-01-09T20:32:24;44.22;;;28.45;;
24325;SDS011;12448;45.532;5.290;2023-01-09T20:34:49;84.00;;;49.65;;
24325;SDS011;12448;45.532;5.290;2023-01-09T20:37:15;32.80;;;15.30;;
24325;SDS011;12448;45.532;5.290;2023-01-09T20:39:41;17.38;;;7.50;;
24325;SDS011;12448;45.532;5.290;2023-01-09T20:42:06;18.77;;;7.50;;
24325;SDS011;12448;45.532;5.290;2023-01-09T20:44:32;43.38;;;23.60;;
24325;SDS011;12448;45.532;5.290;2023-01-09T20:46:57;22.30;;;11.45;;
24325;SDS011;12448;45.532;5.290;2023-01-09T20:49:23;32.80;;;13.93;;
24325;SDS011;12448;45.532;5.290;2023-01-09T20:51:50;10.15;;;4.25;;
24325;SDS011;12448;45.532;5.290;2023-01-09T20:54:17;27.55;;;14.65;;
24325;SDS011;12448;45.532;5.290;2023-01-09T20:56:45;13.38;;;6.53;;
24325;SDS011;12448;45.532;5.290;2023-01-09T20:59:11;18.00;;;5.20;;
24325;SDS011;12448;45.532;5.290;2023-01-09T21:01:38;11.07;;;3.80;;
24325;SDS011;12448;45.532;5.290;2023-01-09T21:04:04;11.68;;;3.90;;
24325;SDS011;12448;45.532;5.290;2023-01-09T21:06:30;9.80;;;4.93;;
24325;SDS011;12448;45.532;5.290;2023-01-09T21:08:56;11.45;;;4.38;;
24325;SDS011;12448;45.532;5.290;2023-01-09T21:11:22;16.27;;;4.88;;
24325;SDS011;12448;45.532;5.290;2023-01-09T21:13:48;10.80;;;4.15;;
24325;SDS011;12448;45.532;5.290;2023-01-09T21:16:15;14.55;;;7.60;;
24325;SDS011;12448;45.532;5.290;2023-01-09T21:18:44;16.35;;;6.75;;
24325;SDS011;12448;45.532;5.290;2023-01-09T21:21:11;38.65;;;21.77;;
24325;SDS011;12448;45.532;5.290;2023-01-09T21:23:39;17.70;;;11.02;;
24325;SDS011;12448;45.532;5.290;2023-01-09T21:26:12;49.90;;;29.65;;
24325;SDS011;12448;45.532;5.290;2023-01-09T21:28:39;24.42;;;13.23;;
24325;SDS011;12448;45.532;5.290;2023-01-09T21:31:13;10.07;;;5.13;;
24325;SDS011;12448;45.532;5.290;2023-01-09T21:33:40;12.70;;;5.45;;
24325;SDS011;12448;45.532;5.290;2023-01-09T21:36:06;10.57;;;3.03;;
24325;SDS011;12448;45.532;5.290;2023-01-09T21:38:32;9.57;;;2.35;;
24325;SDS011;12448;45.532;5.290;2023-01-09T21:40:58;4.90;;;1.73;;
24325;SDS011;12448;45.532;5.290;2023-01-09T21:43:42;14.05;;;2.45;;
24325;SDS011;12448;45.532;5.290;2023-01-09T21:46:26;4.50;;;1.55;;
24325;SDS011;12448;45.532;5.290;2023-01-09T21:49:10;5.13;;;1.92;;